sensor_id;sensor_type;location;lat;lon;timestamp;pressure;altitude;pressure_sealevel;temperature;humidity
56992;BME280;42885;49.754;18.636;2023-05-11T00:01:05;98399.03;;;16.41;55.69
56992;BME280;42885;49.754;18.636;2023-05-11T00:03:55;98395.87;;;16.26;56.73
56992;BME280;42885;49.754;18.636;2023-05-11T00:06:44;98388.94;;;16.19;57.57
56992;BME280;42885;49.754;18.636;2023-05-11T00:09:33;98389.88;;;16.18;58.91
56992;BME280;42885;49.754;18.636;2023-05-11T00:12:24;98390.16;;;16.09;59.09
56992;BME280;42885;49.754;18.636;2023-05-11T00:15:13;98393.41;;;16.01;59.21
56992;BME280;42885;49.754;18.636;2023-05-11T00:18:02;98390.66;;;16.03;59.29
56992;BME280;42885;49.754;18.636;2023-05-11T00:20:51;98386.23;;;15.86;62.59
56992;BME280;42885;49.754;18.636;2023-05-11T00:23:41;98389.14;;;15.77;63.50
56992;BME280;42885;49.754;18.636;2023-05-11T00:26:30;98385.91;;;15.62;62.01
56992;BME280;42885;49.754;18.636;2023-05-11T00:29:19;98383.67;;;15.46;65.93
56992;BME280;42885;49.754;18.636;2023-05-11T00:32:09;98390.48;;;15.03;68.81
56992;BME280;42885;49.754;18.636;2023-05-11T00:34:58;98387.27;;;15.28;66.35
56992;BME280;42885;49.754;18.636;2023-05-11T00:37:47;98380.17;;;15.46;64.86
56992;BME280;42885;49.754;18.636;2023-05-11T00:40:37;98386.42;;;15.45;63.36
56992;BME280;42885;49.754;18.636;2023-05-11T00:43:26;98379.34;;;15.51;62.59
56992;BME280;42885;49.754;18.636;2023-05-11T00:46:16;98384.02;;;15.47;62.09
56992;BME280;42885;49.754;18.636;2023-05-11T00:49:06;98380.80;;;15.38;63.38
56992;BME280;42885;49.754;18.636;2023-05-11T00:51:57;98384.61;;;15.39;64.18
56992;BME280;42885;49.754;18.636;2023-05-11T00:54:47;98392.77;;;15.13;66.52
56992;BME280;42885;49.754;18.636;2023-05-11T00:57:38;98387.98;;;15.07;68.33
56992;BME280;42885;49.754;18.636;2023-05-11T01:00:27;98388.58;;;15.28;68.16
56992;BME280;42885;49.754;18.636;2023-05-11T01:03:17;98385.34;;;15.30;67.28
56992;BME280;42885;49.754;18.636;2023-05-11T01:09:28;98386.30;;;15.35;67.72
56992;BME280;42885;49.754;18.636;2023-05-11T01:12:21;98380.20;;;15.34;65.77
56992;BME280;42885;49.754;18.636;2023-05-11T01:21:16;98383.64;;;14.89;70.60
56992;BME280;42885;49.754;18.636;2023-05-11T01:33:19;98384.50;;;15.01;70.05
56992;BME280;42885;49.754;18.636;2023-05-11T01:36:09;98383.78;;;15.16;69.56
56992;BME280;42885;49.754;18.636;2023-05-11T01:39:03;98384.10;;;14.77;71.89
56992;BME280;42885;49.754;18.636;2023-05-11T01:41:54;98383.21;;;14.71;72.14
56992;BME280;42885;49.754;18.636;2023-05-11T01:44:47;98387.59;;;14.89;71.99
56992;BME280;42885;49.754;18.636;2023-05-11T01:47:38;98391.01;;;14.72;72.61
56992;BME280;42885;49.754;18.636;2023-05-11T01:50:30;98389.62;;;14.50;74.65
56992;BME280;42885;49.754;18.636;2023-05-11T01:53:22;98393.22;;;14.49;75.81
56992;BME280;42885;49.754;18.636;2023-05-11T01:56:13;98394.09;;;14.61;76.35
56992;BME280;42885;49.754;18.636;2023-05-11T01:59:02;98389.38;;;14.47;76.69
56992;BME280;42885;49.754;18.636;2023-05-11T02:01:54;98387.52;;;14.30;77.03
56992;BME280;42885;49.754;18.636;2023-05-11T02:04:44;98390.06;;;14.38;75.99
56992;BME280;42885;49.754;18.636;2023-05-11T02:07:35;98389.64;;;13.95;80.12
56992;BME280;42885;49.754;18.636;2023-05-11T02:10:26;98390.25;;;13.99;82.31
56992;BME280;42885;49.754;18.636;2023-05-11T02:13:17;98391.85;;;14.07;82.02
56992;BME280;42885;49.754;18.636;2023-05-11T02:16:08;98392.23;;;14.14;81.96
56992;BME280;42885;49.754;18.636;2023-05-11T02:18:58;98391.57;;;13.99;82.96
56992;BME280;42885;49.754;18.636;2023-05-11T02:21:48;98391.21;;;13.98;82.54
56992;BME280;42885;49.754;18.636;2023-05-11T02:24:39;98389.64;;;13.95;83.77
56992;BME280;42885;49.754;18.636;2023-05-11T02:27:29;98386.45;;;13.60;86.50
56992;BME280;42885;49.754;18.636;2023-05-11T02:30:19;98392.03;;;13.55;87.60
56992;BME280;42885;49.754;18.636;2023-05-11T02:33:11;98392.55;;;13.47;87.85
56992;BME280;42885;49.754;18.636;2023-05-11T02:36:02;98388.19;;;13.54;88.68
56992;BME280;42885;49.754;18.636;2023-05-11T02:38:57;98391.01;;;13.45;88.89
56992;BME280;42885;49.754;18.636;2023-05-11T02:41:49;98388.28;;;13.39;89.99
56992;BME280;42885;49.754;18.636;2023-05-11T02:44:40;98389.91;;;13.03;92.19
56992;BME280;42885;49.754;18.636;2023-05-11T02:47:32;98394.42;;;12.75;95.44
56992;BME280;42885;49.754;18.636;2023-05-11T02:50:23;98391.63;;;12.84;95.39
56992;BME280;42885;49.754;18.636;2023-05-11T02:53:15;98389.73;;;12.86;95.19
56992;BME280;42885;49.754;18.636;2023-05-11T02:56:07;98388.59;;;12.90;94.73
56992;BME280;42885;49.754;18.636;2023-05-11T02:58:58;98389.95;;;12.96;95.12
56992;BME280;42885;49.754;18.636;2023-05-11T03:01:47;98392.00;;;12.98;96.91
56992;BME280;42885;49.754;18.636;2023-05-11T03:04:38;98391.48;;;12.92;96.85
56992;BME280;42885;49.754;18.636;2023-05-11T03:07:28;98387.91;;;12.80;97.36
56992;BME280;42885;49.754;18.636;2023-05-11T03:10:16;98385.69;;;12.74;96.10
56992;BME280;42885;49.754;18.636;2023-05-11T03:13:06;98381.34;;;12.93;94.91
56992;BME280;42885;49.754;18.636;2023-05-11T03:15:55;98384.48;;;12.86;97.48
56992;BME280;42885;49.754;18.636;2023-05-11T03:18:47;98385.00;;;12.65;97.00
56992;BME280;42885;49.754;18.636;2023-05-11T03:21:38;98387.47;;;12.41;99.57
56992;BME280;42885;49.754;18.636;2023-05-11T03:24:27;98390.16;;;12.33;98.79
56992;BME280;42885;49.754;18.636;2023-05-11T03:27:18;98389.09;;;12.36;97.88
56992;BME280;42885;49.754;18.636;2023-05-11T03:30:10;98392.50;;;12.51;98.30
56992;BME280;42885;49.754;18.636;2023-05-11T03:33:00;98385.59;;;12.63;98.62
56992;BME280;42885;49.754;18.636;2023-05-11T03:35:52;98393.02;;;12.56;99.40
56992;BME280;42885;49.754;18.636;2023-05-11T03:38:45;98390.58;;;12.40;99.61
56992;BME280;42885;49.754;18.636;2023-05-11T03:41:38;98394.37;;;12.01;100.00
56992;BME280;42885;49.754;18.636;2023-05-11T03:44:31;98399.39;;;12.19;100.00
56992;BME280;42885;49.754;18.636;2023-05-11T03:47:22;98398.27;;;12.36;100.00
56992;BME280;42885;49.754;18.636;2023-05-11T03:50:12;98395.83;;;12.40;100.00
56992;BME280;42885;49.754;18.636;2023-05-11T03:53:02;98401.44;;;12.61;100.00
56992;BME280;42885;49.754;18.636;2023-05-11T03:55:52;98408.00;;;12.61;100.00
56992;BME280;42885;49.754;18.636;2023-05-11T03:58:42;98400.71;;;12.39;100.00
56992;BME280;42885;49.754;18.636;2023-05-11T04:01:31;98407.49;;;12.08;100.00
56992;BME280;42885;49.754;18.636;2023-05-11T04:04:28;98406.53;;;12.17;100.00
56992;BME280;42885;49.754;18.636;2023-05-11T04:07:18;98410.25;;;12.60;100.00
56992;BME280;42885;49.754;18.636;2023-05-11T04:10:07;98399.28;;;12.74;99.32
56992;BME280;42885;49.754;18.636;2023-05-11T04:12:56;98403.19;;;12.94;98.01
56992;BME280;42885;49.754;18.636;2023-05-11T04:15:46;98403.97;;;12.63;99.40
56992;BME280;42885;49.754;18.636;2023-05-11T04:18:35;98412.91;;;12.53;100.00
56992;BME280;42885;49.754;18.636;2023-05-11T04:21:25;98404.08;;;12.87;100.00
56992;BME280;42885;49.754;18.636;2023-05-11T04:24:13;98397.88;;;13.14;96.48
56992;BME280;42885;49.754;18.636;2023-05-11T04:27:03;98408.03;;;13.00;98.84
56992;BME280;42885;49.754;18.636;2023-05-11T04:29:52;98405.12;;;13.11;98.00
56992;BME280;42885;49.754;18.636;2023-05-11T04:32:42;98402.77;;;13.13;98.56
56992;BME280;42885;49.754;18.636;2023-05-11T04:35:31;98398.32;;;13.08;99.28
56992;BME280;42885;49.754;18.636;2023-05-11T04:38:21;98401.94;;;13.26;97.89
56992;BME280;42885;49.754;18.636;2023-05-11T04:41:10;98402.06;;;13.56;94.68
56992;BME280;42885;49.754;18.636;2023-05-11T04:44:01;98402.84;;;13.82;92.42
56992;BME280;42885;49.754;18.636;2023-05-11T04:46:55;98402.61;;;13.67;92.60
56992;BME280;42885;49.754;18.636;2023-05-11T04:49:44;98405.70;;;13.79;92.89
56992;BME280;42885;49.754;18.636;2023-05-11T04:52:34;98401.78;;;13.85;92.79
56992;BME280;42885;49.754;18.636;2023-05-11T04:55:24;98402.14;;;13.86;92.99
56992;BME280;42885;49.754;18.636;2023-05-11T04:58:15;98402.30;;;14.14;90.47
56992;BME280;42885;49.754;18.636;2023-05-11T05:01:04;98409.22;;;14.10;90.38
56992;BME280;42885;49.754;18.636;2023-05-11T05:03:53;98405.22;;;14.58;86.51
56992;BME280;42885;49.754;18.636;2023-05-11T05:06:41;98400.78;;;14.95;83.29
56992;BME280;42885;49.754;18.636;2023-05-11T05:09:30;98409.31;;;15.33;80.76
56992;BME280;42885;49.754;18.636;2023-05-11T05:12:20;98397.56;;;15.48;78.26
56992;BME280;42885;49.754;18.636;2023-05-11T05:15:09;98399.45;;;15.75;73.00
56992;BME280;42885;49.754;18.636;2023-05-11T05:17:59;98399.44;;;15.80;66.94
56992;BME280;42885;49.754;18.636;2023-05-11T05:20:48;98404.19;;;16.09;65.60
56992;BME280;42885;49.754;18.636;2023-05-11T05:23:39;98405.45;;;16.27;64.96
56992;BME280;42885;49.754;18.636;2023-05-11T05:26:28;98398.18;;;16.19;65.56
56992;BME280;42885;49.754;18.636;2023-05-11T05:29:18;98405.66;;;16.62;63.55
56992;BME280;42885;49.754;18.636;2023-05-11T05:32:08;98407.60;;;16.33;65.67
56992;BME280;42885;49.754;18.636;2023-05-11T05:34:57;98405.81;;;16.76;62.83
56992;BME280;42885;49.754;18.636;2023-05-11T05:37:47;98405.68;;;17.20;61.50
56992;BME280;42885;49.754;18.636;2023-05-11T05:40:38;98403.20;;;17.44;60.05
56992;BME280;42885;49.754;18.636;2023-05-11T05:43:28;98401.30;;;17.56;58.05
56992;BME280;42885;49.754;18.636;2023-05-11T05:46:17;98402.55;;;17.77;56.25
56992;BME280;42885;49.754;18.636;2023-05-11T05:49:12;98404.81;;;17.92;55.10
56992;BME280;42885;49.754;18.636;2023-05-11T05:52:03;98405.50;;;17.94;54.74
56992;BME280;42885;49.754;18.636;2023-05-11T05:54:52;98404.12;;;17.89;54.56
56992;BME280;42885;49.754;18.636;2023-05-11T05:57:41;98412.33;;;18.32;53.83
56992;BME280;42885;49.754;18.636;2023-05-11T06:00:31;98404.29;;;18.67;52.27
56992;BME280;42885;49.754;18.636;2023-05-11T06:03:21;98405.70;;;18.71;51.82
56992;BME280;42885;49.754;18.636;2023-05-11T06:06:11;98402.40;;;18.83;49.84
56992;BME280;42885;49.754;18.636;2023-05-11T06:09:00;98406.89;;;18.53;48.58
56992;BME280;42885;49.754;18.636;2023-05-11T06:11:49;98409.20;;;18.52;49.24
56992;BME280;42885;49.754;18.636;2023-05-11T06:14:39;98414.75;;;18.78;47.31
56992;BME280;42885;49.754;18.636;2023-05-11T06:17:30;98414.67;;;18.84;46.57
56992;BME280;42885;49.754;18.636;2023-05-11T06:20:20;98404.05;;;19.42;45.48
56992;BME280;42885;49.754;18.636;2023-05-11T06:23:10;98411.09;;;19.61;45.85
56992;BME280;42885;49.754;18.636;2023-05-11T06:26:00;98408.44;;;19.89;46.12
56992;BME280;42885;49.754;18.636;2023-05-11T06:28:51;98403.58;;;20.16;45.56
56992;BME280;42885;49.754;18.636;2023-05-11T06:31:39;98403.98;;;20.62;42.70
56992;BME280;42885;49.754;18.636;2023-05-11T06:34:30;98395.08;;;20.89;41.05
56992;BME280;42885;49.754;18.636;2023-05-11T06:37:19;98400.27;;;20.95;40.02
56992;BME280;42885;49.754;18.636;2023-05-11T06:40:09;98400.27;;;20.95;40.02
56992;BME280;42885;49.754;18.636;2023-05-11T06:42:59;98403.45;;;20.99;39.82
56992;BME280;42885;49.754;18.636;2023-05-11T06:45:49;98401.08;;;21.22;38.87
56992;BME280;42885;49.754;18.636;2023-05-11T06:48:39;98401.97;;;21.35;39.38
56992;BME280;42885;49.754;18.636;2023-05-11T06:51:29;98389.36;;;21.45;38.88
56992;BME280;42885;49.754;18.636;2023-05-11T06:54:18;98397.41;;;21.62;36.26
56992;BME280;42885;49.754;18.636;2023-05-11T06:57:08;98392.20;;;21.87;36.38
56992;BME280;42885;49.754;18.636;2023-05-11T07:02:44;98388.28;;;21.65;34.28
56992;BME280;42885;49.754;18.636;2023-05-11T07:05:35;98382.39;;;21.83;33.71
56992;BME280;42885;49.754;18.636;2023-05-11T07:08:25;98378.09;;;22.03;33.55
56992;BME280;42885;49.754;18.636;2023-05-11T07:11:14;98383.75;;;21.92;33.32
56992;BME280;42885;49.754;18.636;2023-05-11T07:14:03;98384.72;;;21.86;33.98
56992;BME280;42885;49.754;18.636;2023-05-11T07:16:52;98381.25;;;21.98;33.52
56992;BME280;42885;49.754;18.636;2023-05-11T07:19:41;98383.30;;;22.46;32.23
56992;BME280;42885;49.754;18.636;2023-05-11T07:22:31;98378.97;;;22.62;31.20
56992;BME280;42885;49.754;18.636;2023-05-11T07:25:20;98379.32;;;22.71;31.81
56992;BME280;42885;49.754;18.636;2023-05-11T07:28:10;98377.95;;;22.96;32.02
56992;BME280;42885;49.754;18.636;2023-05-11T07:30:59;98376.97;;;22.60;32.47
56992;BME280;42885;49.754;18.636;2023-05-11T07:33:49;98382.62;;;22.23;31.04
56992;BME280;42885;49.754;18.636;2023-05-11T07:36:37;98379.61;;;22.35;31.52
56992;BME280;42885;49.754;18.636;2023-05-11T07:39:27;98384.66;;;22.71;31.76
56992;BME280;42885;49.754;18.636;2023-05-11T07:42:16;98381.28;;;22.90;30.03
56992;BME280;42885;49.754;18.636;2023-05-11T07:45:06;98378.98;;;22.58;31.62
56992;BME280;42885;49.754;18.636;2023-05-11T07:47:54;98377.97;;;22.75;31.48
56992;BME280;42885;49.754;18.636;2023-05-11T07:50:43;98378.95;;;22.82;31.61
56992;BME280;42885;49.754;18.636;2023-05-11T07:53:32;98379.95;;;22.90;31.46
56992;BME280;42885;49.754;18.636;2023-05-11T07:56:22;98370.09;;;23.55;30.71
56992;BME280;42885;49.754;18.636;2023-05-11T07:59:12;98370.17;;;23.34;30.31
56992;BME280;42885;49.754;18.636;2023-05-11T08:02:01;98373.70;;;23.67;29.78
56992;BME280;42885;49.754;18.636;2023-05-11T08:04:51;98372.41;;;23.62;30.68
56992;BME280;42885;49.754;18.636;2023-05-11T08:07:41;98360.98;;;23.73;29.70
56992;BME280;42885;49.754;18.636;2023-05-11T08:10:18;98363.22;;;23.61;29.71
56992;BME280;42885;49.754;18.636;2023-05-11T08:12:49;98363.77;;;24.11;31.06
56992;BME280;42885;49.754;18.636;2023-05-11T08:15:21;98366.18;;;23.98;30.43
56992;BME280;42885;49.754;18.636;2023-05-11T08:17:52;98365.41;;;23.53;30.00
56992;BME280;42885;49.754;18.636;2023-05-11T08:20:24;98359.61;;;23.77;31.02
56992;BME280;42885;49.754;18.636;2023-05-11T08:22:56;98359.44;;;23.83;30.64
56992;BME280;42885;49.754;18.636;2023-05-11T08:25:28;98367.17;;;24.05;29.73
56992;BME280;42885;49.754;18.636;2023-05-11T08:27:59;98362.47;;;24.07;30.61
56992;BME280;42885;49.754;18.636;2023-05-11T08:30:31;98357.17;;;24.45;30.30
56992;BME280;42885;49.754;18.636;2023-05-11T08:33:02;98352.47;;;24.67;29.99
56992;BME280;42885;49.754;18.636;2023-05-11T08:35:35;98352.55;;;24.35;29.79
56992;BME280;42885;49.754;18.636;2023-05-11T08:38:08;98352.34;;;23.94;30.31
56992;BME280;42885;49.754;18.636;2023-05-11T08:40:39;98351.22;;;24.35;29.60
56992;BME280;42885;49.754;18.636;2023-05-11T08:43:15;98345.86;;;24.58;30.81
56992;BME280;42885;49.754;18.636;2023-05-11T08:45:49;98346.93;;;23.79;31.93
56992;BME280;42885;49.754;18.636;2023-05-11T08:48:22;98352.93;;;23.77;30.42
56992;BME280;42885;49.754;18.636;2023-05-11T08:50:53;98350.98;;;23.35;30.62
56992;BME280;42885;49.754;18.636;2023-05-11T08:53:25;98354.34;;;23.33;32.36
56992;BME280;42885;49.754;18.636;2023-05-11T08:55:59;98351.08;;;23.50;33.35
56992;BME280;42885;49.754;18.636;2023-05-11T08:58:33;98339.67;;;23.88;32.46
56992;BME280;42885;49.754;18.636;2023-05-11T09:01:06;98338.48;;;24.75;31.55
56992;BME280;42885;49.754;18.636;2023-05-11T09:03:39;98343.31;;;24.23;30.54
56992;BME280;42885;49.754;18.636;2023-05-11T09:06:11;98338.80;;;24.77;30.48
56992;BME280;42885;49.754;18.636;2023-05-11T09:08:43;98340.26;;;23.75;31.46
56992;BME280;42885;49.754;18.636;2023-05-11T09:11:15;98348.56;;;23.53;31.52
56992;BME280;42885;49.754;18.636;2023-05-11T09:13:46;98337.63;;;23.71;32.16
56992;BME280;42885;49.754;18.636;2023-05-11T09:16:17;98336.31;;;23.90;31.56
56992;BME280;42885;49.754;18.636;2023-05-11T09:18:52;98334.47;;;23.67;32.26
56992;BME280;42885;49.754;18.636;2023-05-11T09:21:24;98335.33;;;23.91;32.71
56992;BME280;42885;49.754;18.636;2023-05-11T09:23:56;98334.00;;;24.72;31.67
56992;BME280;42885;49.754;18.636;2023-05-11T09:26:32;98334.31;;;24.58;31.02
56992;BME280;42885;49.754;18.636;2023-05-11T09:29:03;98333.97;;;24.18;31.61
56992;BME280;42885;49.754;18.636;2023-05-11T09:31:44;98326.89;;;23.79;31.50
56992;BME280;42885;49.754;18.636;2023-05-11T09:34:21;98333.95;;;24.23;32.79
56992;BME280;42885;49.754;18.636;2023-05-11T09:36:54;98323.48;;;24.17;32.05
56992;BME280;42885;49.754;18.636;2023-05-11T09:39:33;98331.17;;;23.88;32.48
56992;BME280;42885;49.754;18.636;2023-05-11T09:42:16;98327.35;;;24.33;32.27
56992;BME280;42885;49.754;18.636;2023-05-11T09:44:47;98327.52;;;24.32;32.21
56992;BME280;42885;49.754;18.636;2023-05-11T09:47:20;98324.39;;;23.77;32.37
56992;BME280;42885;49.754;18.636;2023-05-11T09:49:51;98323.67;;;23.56;32.38
56992;BME280;42885;49.754;18.636;2023-05-11T09:52:21;98322.73;;;23.76;32.49
56992;BME280;42885;49.754;18.636;2023-05-11T09:54:53;98308.11;;;24.87;31.34
56992;BME280;42885;49.754;18.636;2023-05-11T09:57:29;98317.74;;;24.24;32.05
56992;BME280;42885;49.754;18.636;2023-05-11T10:00:01;98313.59;;;25.05;30.96
56992;BME280;42885;49.754;18.636;2023-05-11T10:02:35;98305.36;;;25.48;30.40
56992;BME280;42885;49.754;18.636;2023-05-11T10:05:13;98299.20;;;25.95;30.09
56992;BME280;42885;49.754;18.636;2023-05-11T10:07:46;98299.06;;;25.92;29.99
56992;BME280;42885;49.754;18.636;2023-05-11T10:10:19;98306.20;;;26.39;29.47
56992;BME280;42885;49.754;18.636;2023-05-11T10:12:51;98297.41;;;26.24;28.76
56992;BME280;42885;49.754;18.636;2023-05-11T10:15:23;98289.53;;;26.33;29.60
56992;BME280;42885;49.754;18.636;2023-05-11T10:17:58;98289.94;;;26.30;30.72
56992;BME280;42885;49.754;18.636;2023-05-11T10:20:30;98291.59;;;26.60;30.70
56992;BME280;42885;49.754;18.636;2023-05-11T10:23:01;98294.30;;;26.66;30.29
56992;BME280;42885;49.754;18.636;2023-05-11T10:25:33;98286.97;;;27.93;29.33
56992;BME280;42885;49.754;18.636;2023-05-11T10:28:04;98289.39;;;26.42;27.95
56992;BME280;42885;49.754;18.636;2023-05-11T10:30:36;98290.10;;;26.39;29.13
56992;BME280;42885;49.754;18.636;2023-05-11T10:33:07;98281.69;;;26.78;29.22
56992;BME280;42885;49.754;18.636;2023-05-11T10:35:38;98279.48;;;27.06;29.46
56992;BME280;42885;49.754;18.636;2023-05-11T10:38:09;98281.06;;;27.73;28.02
56992;BME280;42885;49.754;18.636;2023-05-11T10:40:43;98278.35;;;26.58;28.49
56992;BME280;42885;49.754;18.636;2023-05-11T10:51:59;98274.75;;;27.39;27.87
56992;BME280;42885;49.754;18.636;2023-05-11T10:54:40;98270.25;;;26.98;28.48
56992;BME280;42885;49.754;18.636;2023-05-11T10:57:21;98271.33;;;26.57;28.38
56992;BME280;42885;49.754;18.636;2023-05-11T11:02:37;98263.52;;;26.80;27.78
56992;BME280;42885;49.754;18.636;2023-05-11T11:05:11;98270.75;;;27.15;28.39
56992;BME280;42885;49.754;18.636;2023-05-11T11:08:00;98257.39;;;27.86;26.70
56992;BME280;42885;49.754;18.636;2023-05-11T11:10:41;98256.55;;;27.66;25.93
56992;BME280;42885;49.754;18.636;2023-05-11T11:13:15;98246.97;;;27.94;25.50
56992;BME280;42885;49.754;18.636;2023-05-11T11:18:31;98249.64;;;28.35;25.31
56992;BME280;42885;49.754;18.636;2023-05-11T11:21:02;98247.45;;;29.20;25.66
56992;BME280;42885;49.754;18.636;2023-05-11T11:23:42;98247.30;;;29.31;24.43
56992;BME280;42885;49.754;18.636;2023-05-11T11:31:31;98246.32;;;29.48;23.26
56992;BME280;42885;49.754;18.636;2023-05-11T11:42:16;98246.06;;;30.14;23.05
56992;BME280;42885;49.754;18.636;2023-05-11T11:44:48;98248.26;;;29.66;23.19
56992;BME280;42885;49.754;18.636;2023-05-11T11:47:20;98241.01;;;29.67;22.65
56992;BME280;42885;49.754;18.636;2023-05-11T11:49:53;98238.79;;;29.99;23.90
56992;BME280;42885;49.754;18.636;2023-05-11T11:55:03;98236.16;;;29.44;22.61
56992;BME280;42885;49.754;18.636;2023-05-11T11:57:42;98235.32;;;29.91;23.12
56992;BME280;42885;49.754;18.636;2023-05-11T12:00:18;98235.83;;;29.65;22.58
56992;BME280;42885;49.754;18.636;2023-05-11T12:02:50;98239.31;;;30.58;23.59
56992;BME280;42885;49.754;18.636;2023-05-11T12:05:23;98235.02;;;29.90;22.88
56992;BME280;42885;49.754;18.636;2023-05-11T12:08:03;98229.69;;;29.67;23.33
56992;BME280;42885;49.754;18.636;2023-05-11T12:10:34;98235.22;;;30.05;23.89
56992;BME280;42885;49.754;18.636;2023-05-11T12:13:05;98240.84;;;27.69;24.98
56992;BME280;42885;49.754;18.636;2023-05-11T12:15:38;98236.83;;;27.96;26.20
56992;BME280;42885;49.754;18.636;2023-05-11T12:18:22;98233.05;;;30.20;24.06
56992;BME280;42885;49.754;18.636;2023-05-11T12:20:53;98225.87;;;31.08;23.43
56992;BME280;42885;49.754;18.636;2023-05-11T12:23:25;98228.89;;;30.53;24.66
56992;BME280;42885;49.754;18.636;2023-05-11T12:26:03;98227.52;;;31.09;23.54
56992;BME280;42885;49.754;18.636;2023-05-11T12:28:35;98221.09;;;30.91;23.89
56992;BME280;42885;49.754;18.636;2023-05-11T12:31:06;98225.52;;;30.57;24.38
56992;BME280;42885;49.754;18.636;2023-05-11T12:33:49;98212.53;;;31.98;23.94
56992;BME280;42885;49.754;18.636;2023-05-11T12:36:12;98202.66;;;31.49;23.84
56992;BME280;42885;49.754;18.636;2023-05-11T12:38:48;98209.63;;;31.17;23.58
56992;BME280;42885;49.754;18.636;2023-05-11T12:41:20;98214.80;;;28.74;25.03
56992;BME280;42885;49.754;18.636;2023-05-11T12:43:52;98214.85;;;29.84;24.57
56992;BME280;42885;49.754;18.636;2023-05-11T12:46:26;98213.92;;;29.55;24.43
56992;BME280;42885;49.754;18.636;2023-05-11T12:48:57;98218.39;;;28.90;26.10
56992;BME280;42885;49.754;18.636;2023-05-11T12:54:31;98203.63;;;30.84;24.73
56992;BME280;42885;49.754;18.636;2023-05-11T12:57:03;98197.53;;;31.59;24.01
56992;BME280;42885;49.754;18.636;2023-05-11T12:59:39;98202.80;;;30.12;24.42
56992;BME280;42885;49.754;18.636;2023-05-11T13:02:18;98198.34;;;29.57;24.50
56992;BME280;42885;49.754;18.636;2023-05-11T13:04:50;98190.22;;;28.86;25.77
56992;BME280;42885;49.754;18.636;2023-05-11T13:07:26;98193.71;;;30.41;25.32
56992;BME280;42885;49.754;18.636;2023-05-11T13:09:59;98183.05;;;32.59;23.85
56992;BME280;42885;49.754;18.636;2023-05-11T13:12:30;98181.98;;;33.15;22.35
56992;BME280;42885;49.754;18.636;2023-05-11T13:15:10;98180.92;;;33.16;22.25
56992;BME280;42885;49.754;18.636;2023-05-11T13:20:34;98171.40;;;32.73;22.65
56992;BME280;42885;49.754;18.636;2023-05-11T13:23:13;98177.16;;;29.77;24.59
56992;BME280;42885;49.754;18.636;2023-05-11T13:25:51;98175.10;;;29.08;25.23
56992;BME280;42885;49.754;18.636;2023-05-11T13:28:23;98179.39;;;30.87;23.58
56992;BME280;42885;49.754;18.636;2023-05-11T13:30:58;98169.38;;;31.06;24.39
56992;BME280;42885;49.754;18.636;2023-05-11T13:33:30;98165.09;;;30.98;24.02
56992;BME280;42885;49.754;18.636;2023-05-11T13:36:01;98170.11;;;29.28;24.54
56992;BME280;42885;49.754;18.636;2023-05-11T13:38:33;98173.52;;;31.21;22.90
56992;BME280;42885;49.754;18.636;2023-05-11T13:41:04;98168.17;;;31.99;22.83
56992;BME280;42885;49.754;18.636;2023-05-11T13:43:36;98157.09;;;33.47;21.71
56992;BME280;42885;49.754;18.636;2023-05-11T13:46:07;98156.97;;;31.93;23.43
56992;BME280;42885;49.754;18.636;2023-05-11T13:48:38;98151.52;;;33.91;21.22
56992;BME280;42885;49.754;18.636;2023-05-11T13:51:10;98149.56;;;34.03;20.68
56992;BME280;42885;49.754;18.636;2023-05-11T13:53:41;98149.73;;;31.63;21.48
56992;BME280;42885;49.754;18.636;2023-05-11T13:56:13;98146.12;;;29.19;25.59
56992;BME280;42885;49.754;18.636;2023-05-11T13:58:44;98146.36;;;31.46;22.49
56992;BME280;42885;49.754;18.636;2023-05-11T14:01:15;98149.65;;;30.96;24.43
56992;BME280;42885;49.754;18.636;2023-05-11T14:03:50;98152.66;;;28.98;24.95
56992;BME280;42885;49.754;18.636;2023-05-11T14:06:22;98132.27;;;32.66;22.82
56992;BME280;42885;49.754;18.636;2023-05-11T14:08:55;98136.14;;;32.85;21.69
56992;BME280;42885;49.754;18.636;2023-05-11T14:11:26;98135.38;;;31.74;22.37
56992;BME280;42885;49.754;18.636;2023-05-11T14:13:57;98145.55;;;30.38;24.21
56992;BME280;42885;49.754;18.636;2023-05-11T14:16:28;98140.83;;;30.24;23.43
56992;BME280;42885;49.754;18.636;2023-05-11T14:18:59;98133.34;;;29.56;24.58
56992;BME280;42885;49.754;18.636;2023-05-11T14:21:30;98127.98;;;29.01;24.87
56992;BME280;42885;49.754;18.636;2023-05-11T14:24:01;98135.86;;;28.50;26.29
56992;BME280;42885;49.754;18.636;2023-05-11T14:26:32;98129.16;;;27.60;25.92
56992;BME280;42885;49.754;18.636;2023-05-11T14:29:04;98119.25;;;31.43;23.03
56992;BME280;42885;49.754;18.636;2023-05-11T14:31:35;98125.67;;;32.47;21.43
56992;BME280;42885;49.754;18.636;2023-05-11T14:34:06;98116.41;;;33.84;21.30
56992;BME280;42885;49.754;18.636;2023-05-11T14:36:37;98115.80;;;31.24;22.17
56992;BME280;42885;49.754;18.636;2023-05-11T14:39:08;98123.35;;;29.73;24.33
56992;BME280;42885;49.754;18.636;2023-05-11T14:41:40;98113.78;;;28.57;25.55
56992;BME280;42885;49.754;18.636;2023-05-11T14:44:10;98117.32;;;28.51;24.92
56992;BME280;42885;49.754;18.636;2023-05-11T14:46:42;98113.76;;;27.78;25.79
56992;BME280;42885;49.754;18.636;2023-05-11T14:49:13;98114.42;;;28.23;26.42
56992;BME280;42885;49.754;18.636;2023-05-11T14:51:44;98117.98;;;27.49;26.30
56992;BME280;42885;49.754;18.636;2023-05-11T14:54:15;98110.91;;;27.08;27.04
56992;BME280;42885;49.754;18.636;2023-05-11T14:56:46;98111.33;;;27.18;27.31
56992;BME280;42885;49.754;18.636;2023-05-11T14:59:20;98115.70;;;26.57;26.94
56992;BME280;42885;49.754;18.636;2023-05-11T15:01:53;98116.23;;;26.57;27.32
56992;BME280;42885;49.754;18.636;2023-05-11T15:04:27;98118.41;;;25.76;27.63